Time;durP1;ratioP1;P1;durP2;ratioP2;P2;SDS_P1;SDS_P2;PMS_P1;PMS_P2;Temp;Humidity;BMP_temperature;BMP_pressure;BME280_temperature;BME280_humidity;BME280_pressure;Samples;Min_cycle;Max_cycle;Signal;HPM_P1;HPM_P2
2022/07/21 00:00:52;;;;;;;13.55;10.50;;;;;;;22.64;70.77;101771.53;4983843;28;20034;-48
2022/07/21 00:03:18;;;;;;;12.63;10.80;;;;;;;22.65;70.68;101769.78;4991359;28;20034;-48
2022/07/21 00:05:43;;;;;;;12.63;10.65;;;;;;;22.64;70.63;101770.66;4981816;28;20034;-48
2022/07/21 00:08:09;;;;;;;12.00;10.63;;;;;;;22.60;70.08;101761.94;4984606;28;20034;-46
2022/07/21 00:10:34;;;;;;;15.57;11.18;;;;;;;22.65;70.82;101764.53;4979085;28;20034;-49
2022/07/21 00:13:00;;;;;;;13.63;10.32;;;;;;;22.60;69.88;101759.31;4972740;28;20023;-45
2022/07/21 00:15:27;;;;;;;12.38;10.93;;;;;;;22.55;69.98;101747.13;4990879;28;20061;-50
2022/07/21 00:17:52;;;;;;;13.15;10.90;;;;;;;22.53;70.06;101760.25;4990422;28;20101;-47
2022/07/21 00:20:18;;;;;;;11.13;9.80;;;;;;;22.54;70.01;101768.97;4980848;28;20502;-45
2022/07/21 00:22:43;;;;;;;12.30;10.52;;;;;;;22.48;70.49;101769.88;4982476;28;20029;-48
2022/07/21 00:25:10;;;;;;;13.13;9.98;;;;;;;22.51;70.78;101774.22;4979867;28;20038;-44
2022/07/21 00:27:36;;;;;;;13.27;11.32;;;;;;;22.39;71.01;101769.97;4983536;28;20030;-49
2022/07/21 00:30:07;;;;;;;12.18;9.65;;;;;;;22.46;71.17;101772.53;4983265;28;20038;-46
2022/07/21 00:32:33;;;;;;;11.88;10.27;;;;;;;22.43;70.94;101771.66;4981384;28;20456;-48
2022/07/21 00:34:59;;;;;;;13.85;10.50;;;;;;;22.40;70.81;101769.94;4986249;28;20027;-52
2022/07/21 00:37:24;;;;;;;12.43;10.32;;;;;;;22.37;70.64;101767.34;4981633;28;20417;-46
2022/07/21 00:39:54;;;;;;;12.35;10.10;;;;;;;22.39;70.41;101770.84;4965863;28;20031;-47
2022/07/21 00:42:25;;;;;;;12.18;9.85;;;;;;;22.38;70.64;101769.06;4984202;28;20499;-45
2022/07/21 00:44:51;;;;;;;12.65;9.93;;;;;;;22.32;70.94;101769.09;4977773;28;20064;-45
2022/07/21 00:47:27;;;;;;;12.20;10.38;;;;;;;22.39;69.94;101775.22;4985561;28;20573;-47
2022/07/21 00:49:54;;;;;;;11.32;10.05;;;;;;;22.27;70.49;101763.06;4981105;28;20441;-46
2022/07/21 00:52:20;;;;;;;12.25;9.45;;;;;;;22.29;69.95;101766.53;4984729;28;20117;-45
2022/07/21 00:54:46;;;;;;;13.13;9.43;;;;;;;22.24;70.57;101760.44;4989154;28;20109;-45
2022/07/21 00:57:13;;;;;;;11.23;9.48;;;;;;;22.20;70.92;101762.22;4979781;28;20117;-47
2022/07/21 00:59:39;;;;;;;12.82;9.55;;;;;;;22.12;71.33;101755.28;4982544;28;20933;-47
2022/07/21 01:02:05;;;;;;;10.95;9.02;;;;;;;22.13;71.20;101757.88;4986561;28;20095;-47
2022/07/21 01:04:30;;;;;;;11.20;8.93;;;;;;;22.14;70.57;101753.50;4985330;28;20436;-45
2022/07/21 01:06:57;;;;;;;11.88;8.73;;;;;;;22.11;71.04;101745.69;4984968;28;20045;-45
2022/07/21 01:09:22;;;;;;;12.60;9.25;;;;;;;22.06;70.66;101752.66;4988314;28;20127;-45
2022/07/21 01:11:48;;;;;;;12.95;8.80;;;;;;;22.07;71.35;101755.25;4981391;28;20955;-46
2022/07/21 01:14:14;;;;;;;11.45;8.90;;;;;;;22.01;71.58;101738.69;4982079;28;20038;-49
2022/07/21 01:16:41;;;;;;;17.02;9.43;;;;;;;22.00;71.12;101732.59;4983122;28;20031;-49
2022/07/21 01:19:07;;;;;;;12.77;8.88;;;;;;;22.00;71.00;101729.13;4979334;28;20524;-51
2022/07/21 01:21:35;;;;;;;12.38;9.48;;;;;;;21.95;71.38;101743.09;4973200;28;20148;-47
2022/07/21 01:24:02;;;;;;;9.80;8.65;;;;;;;21.92;71.37;101735.25;4981914;28;20025;-47
2022/07/21 01:26:28;;;;;;;10.73;9.02;;;;;;;21.94;70.99;101732.63;4984153;28;20031;-44
2022/07/21 01:28:54;;;;;;;11.43;9.00;;;;;;;21.91;71.48;101738.78;4965829;28;20062;-45
2022/07/21 01:31:20;;;;;;;10.20;8.98;;;;;;;21.87;71.32;101742.25;4978847;28;20034;-48
2022/07/21 01:33:46;;;;;;;11.15;9.13;;;;;;;21.80;71.67;101730.09;4979661;28;20615;-45
2022/07/21 01:36:11;;;;;;;9.93;8.90;;;;;;;21.80;71.49;101732.69;4981290;28;20035;-48
2022/07/21 01:41:30;;;;;;;11.50;9.25;;;;;;;21.72;71.42;101744.97;4985545;28;20085;-48
2022/07/21 01:44:01;;;;;;;9.50;8.52;;;;;;;21.77;71.44;101745.78;4980506;28;20112;-46
2022/07/21 01:46:28;;;;;;;10.57;8.98;;;;;;;21.68;71.80;101738.00;4985913;28;20036;-46
2022/07/21 01:48:54;;;;;;;10.05;8.88;;;;;;;21.71;71.98;101730.13;4986850;28;20129;-48
2022/07/21 01:51:19;;;;;;;10.38;9.13;;;;;;;21.67;72.49;101734.50;4981276;28;20129;-46
2022/07/21 01:53:45;;;;;;;9.98;8.65;;;;;;;21.65;72.45;101738.00;4968167;28;20084;-47
2022/07/21 01:56:10;;;;;;;9.98;8.85;;;;;;;21.65;72.27;101735.38;4981685;28;20038;-46
2022/07/21 01:58:35;;;;;;;12.63;9.40;;;;;;;21.63;72.72;101738.00;4964107;28;20034;-50
2022/07/21 02:01:01;;;;;;;11.73;9.63;;;;;;;21.55;72.48;101745.03;4987650;28;20495;-49
2022/07/21 02:03:26;;;;;;;9.75;8.77;;;;;;;21.52;73.12;101747.63;4989082;28;20441;-45
2022/07/21 02:05:52;;;;;;;13.50;9.30;;;;;;;21.49;73.37;101749.41;4982946;28;20030;-45
2022/07/21 02:08:17;;;;;;;11.10;9.27;;;;;;;21.54;73.20;101748.53;4983432;28;20117;-45
2022/07/21 02:10:43;;;;;;;11.13;9.27;;;;;;;21.48;73.35;101751.16;4984705;28;20035;-45
2022/07/21 02:13:08;;;;;;;11.85;9.55;;;;;;;21.52;73.08;101752.00;4983619;28;20399;-46
2022/07/21 02:15:34;;;;;;;10.60;8.73;;;;;;;21.56;72.99;101754.59;4982772;28;20402;-48
2022/07/21 02:17:59;;;;;;;12.63;9.60;;;;;;;21.49;73.24;101741.56;4984669;28;20084;-49
2022/07/21 02:20:25;;;;;;;11.18;9.70;;;;;;;21.52;72.94;101731.94;4978954;28;20471;-48
2022/07/21 02:22:51;;;;;;;10.98;9.45;;;;;;;21.48;73.05;101732.84;4981596;28;20061;-47
2022/07/21 02:25:17;;;;;;;13.65;9.77;;;;;;;21.49;73.26;101736.31;4979846;28;20752;-50
2022/07/21 02:27:44;;;;;;;12.27;9.60;;;;;;;21.44;73.04;101736.31;4973456;28;21121;-48
2022/07/21 02:30:10;;;;;;;10.60;9.50;;;;;;;21.51;73.40;101724.97;4982201;28;20505;-46
2022/07/21 02:32:35;;;;;;;11.27;9.75;;;;;;;21.50;73.54;101730.22;4986612;28;20093;-46
2022/07/21 02:35:01;;;;;;;13.75;10.00;;;;;;;21.46;73.12;101734.56;4984643;28;20440;-45
2022/07/21 02:37:28;;;;;;;10.95;9.85;;;;;;;21.47;73.72;101740.66;4979629;28;20043;-49
2022/07/21 02:39:54;;;;;;;12.60;9.95;;;;;;;21.47;73.23;101733.69;4984810;28;20066;-47
2022/07/21 02:42:19;;;;;;;12.52;9.90;;;;;;;21.44;73.79;101723.25;4979440;28;20050;-46
2022/07/21 02:44:45;;;;;;;13.13;10.35;;;;;;;21.44;73.99;101725.88;4984400;28;20051;-50
2022/07/21 02:47:10;;;;;;;12.98;10.18;;;;;;;21.42;73.83;101722.38;4986215;28;20031;-48
2022/07/21 02:49:35;;;;;;;11.05;9.70;;;;;;;21.46;74.05;101731.09;4981869;28;20528;-48
2022/07/21 02:52:01;;;;;;;11.93;9.98;;;;;;;21.41;73.86;101731.09;4983969;28;20043;-46
2022/07/21 02:54:26;;;;;;;16.33;10.25;;;;;;;21.47;73.62;101724.97;4963247;28;20034;-46
2022/07/21 02:56:51;;;;;;;15.30;10.77;;;;;;;21.38;74.14;101711.06;4983313;28;20402;-48
2022/07/21 02:59:17;;;;;;;12.48;10.40;;;;;;;21.37;73.73;101709.31;4979181;28;20119;-45
2022/07/21 03:01:42;;;;;;;12.73;10.70;;;;;;;21.40;73.97;101706.66;4978304;28;20752;-48
2022/07/21 03:04:08;;;;;;;14.15;11.07;;;;;;;21.35;74.33;101697.97;4979677;28;20034;-46
2022/07/21 03:06:33;;;;;;;13.13;10.50;;;;;;;21.36;74.06;101710.19;4985003;28;20433;-49
2022/07/21 03:08:59;;;;;;;15.38;10.85;;;;;;;21.34;74.06;101711.94;4987935;28;20061;-47
2022/07/21 03:11:25;;;;;;;13.38;11.45;;;;;;;21.28;73.95;101711.91;4988610;28;20038;-51
2022/07/21 03:13:50;;;;;;;15.90;12.18;;;;;;;21.28;74.37;101713.66;4991634;28;20050;-48
2022/07/21 03:16:15;;;;;;;12.90;11.60;;;;;;;21.27;74.56;101711.91;4983403;28;20034;-46
2022/07/21 03:18:41;;;;;;;13.93;12.05;;;;;;;21.27;74.37;101712.78;4987740;28;20039;-46
2022/07/21 03:21:07;;;;;;;14.93;12.52;;;;;;;21.28;74.38;101711.03;4985425;28;20026;-45
2022/07/21 03:23:33;;;;;;;15.55;11.98;;;;;;;21.24;74.41;101715.44;4989425;28;20539;-46
2022/07/21 03:25:58;;;;;;;13.90;12.38;;;;;;;21.25;74.69;101711.06;4981293;28;20034;-46
2022/07/21 03:28:24;;;;;;;14.35;11.95;;;;;;;21.18;75.36;101718.06;4976355;28;20026;-47
2022/07/21 03:30:49;;;;;;;16.73;12.43;;;;;;;21.22;74.82;101718.91;4983643;28;20073;-48
2022/07/21 03:33:15;;;;;;;16.02;13.10;;;;;;;21.23;74.77;101716.28;4983042;28;20522;-55
2022/07/21 03:35:41;;;;;;;15.40;12.95;;;;;;;21.23;74.63;101723.25;4981546;28;20023;-49
2022/07/21 03:38:07;;;;;;;15.23;12.70;;;;;;;21.24;75.42;101731.13;4985049;28;20038;-49
2022/07/21 03:40:34;;;;;;;16.17;13.20;;;;;;;21.23;75.00;101726.75;4984902;28;20042;-45
2022/07/21 03:43:02;;;;;;;15.50;12.63;;;;;;;21.23;74.60;101716.28;4983013;28;20449;-47
2022/07/21 03:45:30;;;;;;;16.15;13.52;;;;;;;21.23;74.73;101718.03;4984103;28;20038;-45
2022/07/21 03:47:57;;;;;;;19.50;13.25;;;;;;;21.19;74.72;101729.38;4980594;28;20039;-46
2022/07/21 03:50:22;;;;;;;18.23;13.23;;;;;;;21.16;75.37;101728.50;4984631;28;20029;-47
2022/07/21 03:52:47;;;;;;;19.25;13.90;;;;;;;21.18;74.74;101730.28;4982773;28;20048;-44
2022/07/21 03:55:20;;;;;;;15.85;13.07;;;;;;;21.13;74.49;101725.91;4988050;28;20443;-50
2022/07/21 03:57:52;;;;;;;19.73;13.50;;;;;;;21.21;74.28;101735.47;4994032;28;20064;-48
2022/07/21 04:00:33;;;;;;;17.50;12.25;;;;;;;21.22;74.21;101735.47;4990754;28;20470;-48
2022/07/21 04:03:00;;;;;;;17.23;12.57;;;;;;;21.18;74.27;101733.75;4983733;28;20030;-51
2022/07/21 04:05:26;;;;;;;14.65;12.80;;;;;;;21.16;75.00;101740.72;4982923;28;20171;-47
2022/07/21 04:07:52;;;;;;;17.98;13.32;;;;;;;21.13;74.94;101745.97;4980889;28;20800;-47
2022/07/21 04:10:21;;;;;;;16.30;12.63;;;;;;;21.09;75.29;101741.59;4979382;28;20062;-49
2022/07/21 04:12:48;;;;;;;16.55;12.52;;;;;;;21.13;75.07;101741.59;4979694;28;20049;-46
2022/07/21 04:15:13;;;;;;;15.80;12.68;;;;;;;21.04;74.92;101738.09;4993373;28;20028;-45
2022/07/21 04:17:39;;;;;;;17.80;12.43;;;;;;;21.05;75.09;101732.00;4988332;28;20063;-47
2022/07/21 04:20:06;;;;;;;14.60;12.02;;;;;;;21.05;74.93;101735.53;4986952;28;20536;-46
2022/07/21 04:22:32;;;;;;;14.98;11.85;;;;;;;21.11;74.65;101730.28;4984763;28;20034;-46
2022/07/21 04:24:57;;;;;;;16.52;12.20;;;;;;;21.06;75.56;101736.38;4985015;28;20039;-50
2022/07/21 04:27:23;;;;;;;17.48;12.68;;;;;;;21.10;75.04;101733.75;4985589;28;20026;-49
2022/07/21 04:29:48;;;;;;;17.25;11.68;;;;;;;21.09;75.12;101728.53;4982365;28;20117;-48
2022/07/21 04:32:14;;;;;;;14.27;11.55;;;;;;;21.10;74.85;101723.28;4981772;28;20022;-49
2022/07/21 04:34:39;;;;;;;13.88;11.30;;;;;;;21.08;75.46;101718.94;5042792;28;20056;-50
2022/07/21 04:37:04;;;;;;;18.20;12.07;;;;;;;21.03;75.82;101720.69;4991561;28;20769;-51
2022/07/21 04:39:30;;;;;;;13.43;11.27;;;;;;;21.03;75.73;101726.78;4985557;28;20749;-50
2022/07/21 04:41:55;;;;;;;14.13;11.05;;;;;;;21.06;75.37;101725.94;4979122;28;20037;-49
2022/07/21 04:44:21;;;;;;;14.68;10.85;;;;;;;21.03;75.76;101729.41;4971550;28;20750;-48
2022/07/21 04:46:46;;;;;;;14.13;11.80;;;;;;;20.92;76.75;101731.16;4986287;28;20175;-45
2022/07/21 04:49:11;;;;;;;15.77;11.07;;;;;;;20.99;76.45;101732.00;4985569;28;20049;-46
2022/07/21 04:51:37;;;;;;;14.95;11.65;;;;;;;20.96;76.49;101735.50;4985903;28;20459;-46
2022/07/21 04:54:02;;;;;;;18.92;11.13;;;;;;;20.98;76.30;101732.88;4980452;28;20030;-46
2022/07/21 04:56:28;;;;;;;14.30;11.32;;;;;;;20.98;76.21;101733.75;4983523;28;20112;-48
2022/07/21 04:58:53;;;;;;;14.05;10.48;;;;;;;20.92;76.99;101739.00;4969356;28;20086;-45
2022/07/21 05:01:19;;;;;;;13.35;10.23;;;;;;;20.94;75.97;101737.28;4981923;28;20032;-45
2022/07/21 05:03:45;;;;;;;14.23;11.13;;;;;;;20.91;76.58;101736.38;4985249;28;20038;-50
2022/07/21 05:06:11;;;;;;;15.65;10.32;;;;;;;20.88;76.59;101738.16;4961562;28;20034;-49
2022/07/21 05:08:36;;;;;;;15.23;10.75;;;;;;;20.88;76.95;101742.50;4985349;28;20041;-45
2022/07/21 05:11:02;;;;;;;13.35;10.30;;;;;;;20.89;76.82;101739.88;4985119;28;20026;-45
2022/07/21 05:13:27;;;;;;;12.60;9.95;;;;;;;20.88;76.67;101738.16;4987949;28;20938;-46
2022/07/21 05:15:53;;;;;;;12.05;10.18;;;;;;;20.87;76.61;101736.41;4979968;28;20503;-50
2022/07/21 05:18:18;;;;;;;12.38;9.23;;;;;;;20.91;76.61;101736.38;4973359;28;20092;-50
2022/07/21 05:20:43;;;;;;;12.43;9.32;;;;;;;20.92;76.40;101733.75;4989103;28;20129;-49
2022/07/21 05:23:09;;;;;;;14.75;9.30;;;;;;;20.89;76.73;101726.81;4981967;28;20061;-50
2022/07/21 05:25:35;;;;;;;13.48;9.98;;;;;;;20.89;76.30;101728.56;4970528;28;20141;-48
2022/07/21 05:28:01;;;;;;;15.95;9.93;;;;;;;20.89;77.17;101728.56;4986706;28;20202;-50
2022/07/21 05:30:26;;;;;;;15.38;10.00;;;;;;;20.88;76.69;101725.06;4983435;28;20018;-50
2022/07/21 05:32:52;;;;;;;11.85;9.40;;;;;;;20.88;76.89;101730.31;4991649;28;20053;-46
2022/07/21 05:35:17;;;;;;;16.23;9.82;;;;;;;20.92;77.55;101728.53;4984697;28;20038;-50
2022/07/21 05:37:43;;;;;;;14.77;9.48;;;;;;;20.95;77.34;101727.69;4988136;28;20079;-51
2022/07/21 05:40:09;;;;;;;13.05;9.18;;;;;;;20.91;77.17;101725.94;4996849;28;20029;-49
2022/07/21 05:42:36;;;;;;;16.85;9.52;;;;;;;20.89;76.92;101729.41;4982650;28;20034;-51
2022/07/21 05:45:02;;;;;;;15.68;9.88;;;;;;;20.89;77.29;101728.56;4992468;28;20398;-52
2022/07/21 05:47:29;;;;;;;15.52;9.57;;;;;;;20.91;77.54;101732.03;4986928;28;20034;-49
2022/07/21 05:49:54;;;;;;;10.88;8.75;;;;;;;20.86;77.36;101729.41;4985265;28;20041;-45
2022/07/21 05:52:20;;;;;;;13.70;9.10;;;;;;;20.84;77.37;101731.16;4960320;28;20402;-48
2022/07/21 05:54:45;;;;;;;15.88;9.30;;;;;;;20.85;76.68;101722.44;4997549;28;20398;-45
2022/07/21 05:57:11;;;;;;;10.50;8.48;;;;;;;20.91;77.28;101724.19;4989816;28;20034;-45
2022/07/21 05:59:36;;;;;;;13.02;8.60;;;;;;;20.91;77.06;101732.03;4985256;28;20103;-47
2022/07/21 06:02:02;;;;;;;13.18;8.50;;;;;;;20.92;76.74;101727.66;4981877;28;20057;-45
2022/07/21 06:04:27;;;;;;;13.27;8.77;;;;;;;20.87;76.63;101725.09;4981985;28;20061;-48
2022/07/21 06:06:53;;;;;;;12.90;8.43;;;;;;;20.93;76.51;101721.56;4977658;28;20394;-50
2022/07/21 06:09:20;;;;;;;13.02;8.60;;;;;;;20.92;76.74;101730.28;4983681;28;20023;-47
2022/07/21 06:11:46;;;;;;;14.68;8.93;;;;;;;20.95;76.69;101727.69;4994431;28;20158;-48
2022/07/21 06:14:11;;;;;;;16.23;8.88;;;;;;;20.96;76.53;101721.56;4982752;28;20038;-46
2022/07/21 06:16:37;;;;;;;11.35;8.50;;;;;;;20.92;76.38;101717.22;4992221;28;20030;-48
2022/07/21 06:19:04;;;;;;;13.50;8.77;;;;;;;21.00;76.57;101725.94;4983943;28;20027;-49
2022/07/21 06:21:30;;;;;;;15.27;9.48;;;;;;;20.98;76.19;101717.19;4987875;28;20494;-61
2022/07/21 06:23:55;;;;;;;18.17;10.18;;;;;;;21.03;76.41;101721.56;4980747;28;20045;-51
2022/07/21 06:26:21;;;;;;;17.58;9.73;;;;;;;21.08;76.56;101719.81;4973419;28;20049;-45
2022/07/21 06:28:46;;;;;;;18.10;10.35;;;;;;;21.10;75.64;101722.41;4987060;28;20379;-47
2022/07/21 06:31:11;;;;;;;19.10;11.18;;;;;;;21.11;76.28;101719.81;4981643;28;20564;-45
2022/07/21 06:33:37;;;;;;;17.42;10.75;;;;;;;21.28;76.00;101726.75;4990417;28;20036;-48
2022/07/21 06:36:02;;;;;;;16.02;11.32;;;;;;;21.32;76.46;101720.66;4991393;28;20026;-46
2022/07/21 06:38:28;;;;;;;21.77;11.48;;;;;;;21.34;76.37;101725.00;4990735;28;20030;-50
2022/07/21 06:40:53;;;;;;;20.55;12.30;;;;;;;21.45;75.43;101731.97;4986685;28;20037;-45
2022/07/21 06:43:19;;;;;;;18.98;11.65;;;;;;;21.46;75.54;101726.72;4993807;28;20050;-47
2022/07/21 06:45:44;;;;;;;17.35;12.10;;;;;;;21.49;74.64;101725.84;4990834;28;20038;-47
2022/07/21 06:48:12;;;;;;;21.75;13.27;;;;;;;21.48;75.20;101726.72;4985497;28;20034;-44
2022/07/21 06:50:37;;;;;;;22.30;13.65;;;;;;;21.49;74.84;101725.84;4994118;28;20994;-48
2022/07/21 06:53:04;;;;;;;24.05;14.00;;;;;;;21.51;75.68;101740.66;4988889;28;20045;-47
2022/07/21 06:55:29;;;;;;;21.17;13.65;;;;;;;21.53;74.16;101743.25;5003215;28;20041;-46
2022/07/21 06:57:55;;;;;;;20.92;14.20;;;;;;;21.52;74.92;101737.16;4987838;28;20530;-45
2022/07/21 07:00:21;;;;;;;23.60;14.40;;;;;;;21.48;75.17;101740.69;4979377;28;20062;-45
2022/07/21 07:02:46;;;;;;;23.95;14.40;;;;;;;21.57;75.80;101739.78;4991860;28;20090;-45
2022/07/21 07:05:11;;;;;;;26.52;15.52;;;;;;;21.58;75.38;101746.75;4990668;28;20042;-45
2022/07/21 07:07:37;;;;;;;19.25;13.60;;;;;;;21.59;74.96;101748.47;5002525;28;20047;-47
2022/07/21 07:10:03;;;;;;;21.05;14.38;;;;;;;21.56;76.08;101749.38;4999234;28;20054;-47
2022/07/21 07:12:29;;;;;;;21.35;15.15;;;;;;;21.57;75.61;101755.47;4993728;28;20026;-48
2022/07/21 07:14:54;;;;;;;20.63;15.10;;;;;;;21.54;75.51;101750.28;4993872;28;20076;-46
2022/07/21 07:17:19;;;;;;;21.75;15.13;;;;;;;21.50;75.44;101746.78;4999755;28;20118;-45
2022/07/21 07:19:46;;;;;;;21.77;15.32;;;;;;;21.55;75.62;101749.38;4995369;28;20046;-47
2022/07/21 07:22:11;;;;;;;24.08;15.25;;;;;;;21.52;75.33;101747.63;4997643;28;20038;-45
2022/07/21 07:24:37;;;;;;;22.45;15.05;;;;;;;21.50;75.80;101743.28;5002986;28;20038;-46
2022/07/21 07:27:02;;;;;;;21.75;16.38;;;;;;;21.54;75.00;101756.38;4991842;28;20034;-47
2022/07/21 07:29:28;;;;;;;22.17;15.27;;;;;;;21.56;75.03;101751.13;4998609;28;20394;-48
2022/07/21 07:31:54;;;;;;;22.90;14.88;;;;;;;21.53;75.24;101754.59;4984276;28;20030;-44
2022/07/21 07:34:20;;;;;;;24.25;15.65;;;;;;;21.45;76.21;101758.13;4977684;28;20062;-46
2022/07/21 07:36:45;;;;;;;22.88;16.38;;;;;;;21.44;75.03;101759.00;4985162;28;20042;-45
2022/07/21 07:39:11;;;;;;;27.70;17.23;;;;;;;21.47;75.13;101752.00;4997007;28;20501;-45
2022/07/21 07:41:36;;;;;;;27.58;16.40;;;;;;;21.43;75.30;101758.13;4988209;28;20132;-47
2022/07/21 07:44:01;;;;;;;24.08;15.70;;;;;;;21.46;74.96;101758.13;4988287;28;20110;-48
2022/07/21 07:46:27;;;;;;;23.80;15.98;;;;;;;21.41;75.02;101755.50;4989083;28;20076;-46
2022/07/21 07:48:52;;;;;;;25.73;16.50;;;;;;;21.35;74.95;101752.91;4988735;28;20042;-46
2022/07/21 07:51:18;;;;;;;27.73;16.77;;;;;;;21.38;75.20;101752.91;5001497;28;20045;-46
2022/07/21 07:53:43;;;;;;;26.75;16.08;;;;;;;21.31;76.29;101756.41;4987849;28;20081;-46
2022/07/21 07:56:09;;;;;;;23.00;16.13;;;;;;;21.33;77.68;101753.78;4986117;28;20084;-43
2022/07/21 07:58:35;;;;;;;26.08;15.73;;;;;;;21.32;79.09;101760.78;5011387;28;20024;-44
2022/07/21 08:01:00;;;;;;;22.38;14.13;;;;;;;21.22;80.57;101755.53;4992759;28;20052;-45
2022/07/21 08:03:27;;;;;;;16.98;11.63;;;;;;;21.17;80.54;101763.38;5006694;28;20557;-45
2022/07/21 08:05:54;;;;;;;16.33;10.13;;;;;;;21.15;81.01;101763.38;4988000;28;20120;-45
2022/07/21 08:08:21;;;;;;;17.58;10.55;;;;;;;21.08;82.30;101763.41;4981055;28;20034;-49
2022/07/21 08:10:46;;;;;;;13.15;10.13;;;;;;;21.03;82.80;101762.53;4991909;28;20494;-47
2022/07/21 08:13:13;;;;;;;12.80;8.63;;;;;;;21.05;82.63;101760.78;4989232;28;20042;-46
2022/07/21 08:15:39;;;;;;;11.75;7.78;;;;;;;21.02;81.88;101760.78;4988499;28;20031;-45
2022/07/21 08:18:06;;;;;;;12.85;8.07;;;;;;;20.96;82.86;101768.63;4998803;28;20052;-47
2022/07/21 08:20:32;;;;;;;10.13;7.45;;;;;;;20.93;82.10;101760.78;4992798;28;20478;-49
2022/07/21 08:22:57;;;;;;;10.20;6.90;;;;;;;20.87;82.07;101767.78;4992559;28;20037;-47
2022/07/21 08:25:23;;;;;;;8.30;6.97;;;;;;;20.84;82.77;101761.66;4999823;28;20035;-44
2022/07/21 08:27:48;;;;;;;9.40;7.80;;;;;;;20.82;82.48;101759.06;4974300;28;20486;-44
2022/07/21 08:30:14;;;;;;;8.35;7.22;;;;;;;20.83;83.03;101763.41;4989881;28;20064;-48
2022/07/21 08:32:40;;;;;;;9.55;7.63;;;;;;;20.82;83.40;101759.06;4997674;28;20026;-47
2022/07/21 08:35:08;;;;;;;7.95;7.15;;;;;;;20.83;83.40;101754.69;5003988;28;20023;-48
2022/07/21 08:37:35;;;;;;;8.77;7.55;;;;;;;20.84;84.26;101766.88;5013975;28;20406;-46
2022/07/21 08:40:01;;;;;;;8.13;6.97;;;;;;;20.81;84.10;101759.94;4981332;28;20026;-48
2022/07/21 08:42:27;;;;;;;9.18;7.03;;;;;;;20.87;84.64;101761.69;4976384;28;21145;-48
2022/07/21 08:44:52;;;;;;;10.32;7.72;;;;;;;20.83;84.91;101760.78;4988344;28;20129;-48
2022/07/21 08:47:17;;;;;;;9.38;7.45;;;;;;;20.84;84.89;101761.66;4986088;28;20042;-45
2022/07/21 08:49:46;;;;;;;8.85;7.35;;;;;;;20.83;85.02;101763.41;4988697;28;20051;-46
2022/07/21 08:52:12;;;;;;;9.48;7.25;;;;;;;20.79;85.26;101755.56;4971670;28;20060;-46
2022/07/21 08:54:37;;;;;;;8.95;7.10;;;;;;;20.78;84.95;101761.66;4997757;28;20034;-48
2022/07/21 08:57:03;;;;;;;8.40;7.18;;;;;;;20.78;86.18;101759.06;4993249;28;20699;-45
2022/07/21 08:59:29;;;;;;;9.98;7.20;;;;;;;20.75;86.02;101765.16;5016188;28;20133;-48
2022/07/21 09:01:54;;;;;;;8.38;7.15;;;;;;;20.80;86.06;101752.94;4990582;28;20041;-48
2022/07/21 09:04:21;;;;;;;8.90;6.95;;;;;;;20.75;85.69;101754.72;4973298;28;20056;-45
2022/07/21 09:06:54;;;;;;;7.60;6.80;;;;;;;20.81;85.97;101762.56;4994066;28;20676;-45
2022/07/21 09:09:21;;;;;;;8.48;6.55;;;;;;;20.75;86.01;101759.94;4997611;28;20040;-46
2022/07/21 09:11:46;;;;;;;7.78;6.32;;;;;;;20.79;85.87;101758.16;4996660;28;20022;-45
2022/07/21 09:14:19;;;;;;;9.05;6.22;;;;;;;20.78;86.01;101757.31;4985042;28;20037;-46
2022/07/21 09:16:47;;;;;;;7.22;6.43;;;;;;;20.80;86.52;101760.78;4982844;28;20449;-45
2022/07/21 09:19:20;;;;;;;7.22;6.45;;;;;;;20.82;86.16;101759.06;4982312;28;20056;-47
2022/07/21 09:21:46;;;;;;;7.55;6.72;;;;;;;20.77;86.75;101760.78;4992742;28;20042;-57
2022/07/21 09:24:15;;;;;;;8.00;7.20;;;;;;;20.81;86.29;101762.56;4984963;28;20460;-46
2022/07/21 09:27:23;;;;;;;8.05;6.82;;;;;;;20.94;86.36;101773.88;4986086;28;20061;-47
2022/07/21 09:29:58;;;;;;;8.02;6.70;;;;;;;20.92;86.02;101767.75;4993546;28;20046;-47
2022/07/21 09:32:38;;;;;;;7.28;6.55;;;;;;;20.91;86.08;101778.22;4984202;28;20116;-51
2022/07/21 09:35:09;;;;;;;7.90;7.05;;;;;;;20.93;87.17;101776.47;4986790;28;20038;-48
2022/07/21 09:37:36;;;;;;;7.18;6.47;;;;;;;20.94;87.38;101788.69;4990038;28;20030;-49
2022/07/21 09:40:11;;;;;;;6.72;5.68;;;;;;;20.92;86.50;101790.41;4984260;28;20545;-46
2022/07/21 09:42:38;;;;;;;5.72;5.20;;;;;;;20.83;84.74;101788.69;4982392;28;20610;-46
2022/07/21 09:45:06;;;;;;;5.60;5.10;;;;;;;20.82;85.25;101793.03;4990770;28;20095;-44
2022/07/21 09:47:32;;;;;;;5.95;5.03;;;;;;;20.81;85.63;101793.91;4963115;28;20145;-47
2022/07/21 09:49:59;;;;;;;5.20;4.70;;;;;;;20.76;86.56;101792.16;4974869;28;20087;-47
2022/07/21 09:52:29;;;;;;;4.68;4.25;;;;;;;20.78;85.59;101793.91;4980664;28;20022;-47
2022/07/21 09:55:02;;;;;;;4.53;4.13;;;;;;;20.77;85.62;101797.38;4980043;28;20029;-50
2022/07/21 09:57:28;;;;;;;4.43;4.03;;;;;;;20.77;84.90;101797.38;4983792;28;20113;-45
2022/07/21 09:59:55;;;;;;;7.68;3.90;;;;;;;20.75;84.73;101804.38;4984988;28;20033;-47
2022/07/21 10:02:23;;;;;;;4.47;3.75;;;;;;;20.77;85.00;101800.00;4995034;28;20078;-49
2022/07/21 10:05:02;;;;;;;4.32;3.90;;;;;;;20.77;84.08;101805.22;4990345;28;20024;-48
2022/07/21 10:07:29;;;;;;;4.55;3.92;;;;;;;20.73;85.20;101807.84;4991882;28;20109;-47
2022/07/21 10:09:55;;;;;;;4.25;3.85;;;;;;;20.69;86.34;101811.28;4986507;28;20032;-46
2022/07/21 10:12:22;;;;;;;4.95;3.95;;;;;;;20.73;85.88;101821.78;4964044;28;20045;-46
2022/07/21 10:14:48;;;;;;;6.95;4.28;;;;;;;20.76;84.82;101819.16;4982540;28;20390;-50
2022/07/21 10:17:18;;;;;;;4.38;3.95;;;;;;;20.76;85.89;101816.56;4980718;28;20030;-46
2022/07/21 10:20:15;;;;;;;5.97;4.03;;;;;;;20.79;84.88;101827.00;4980513;28;20026;-47
2022/07/21 10:22:50;;;;;;;4.03;3.38;;;;;;;20.77;84.89;101831.38;4974066;28;20549;-47
2022/07/21 10:25:16;;;;;;;4.93;3.25;;;;;;;20.72;84.29;101827.88;4976136;28;20127;-46
2022/07/21 10:28:20;;;;;;;3.60;3.22;;;;;;;20.80;83.88;101833.09;4980707;28;20084;-48
2022/07/21 10:30:57;;;;;;;4.20;3.40;;;;;;;20.73;84.53;101833.97;4982036;28;20031;-46
2022/07/21 10:33:45;;;;;;;4.57;3.20;;;;;;;20.76;84.17;101837.47;4983231;28;20022;-47
2022/07/21 10:36:28;;;;;;;4.57;3.08;;;;;;;20.72;84.02;101840.06;4981549;28;20030;-49
2022/07/21 10:39:05;;;;;;;4.55;3.20;;;;;;;20.70;84.50;101840.06;4976871;28;20022;-46
2022/07/21 10:41:45;;;;;;;4.65;3.40;;;;;;;20.68;84.39;101844.41;4987776;28;20030;-46
2022/07/21 10:44:30;;;;;;;4.50;3.58;;;;;;;20.71;84.21;101841.81;4983197;28;20053;-45
2022/07/21 10:47:10;;;;;;;4.68;3.60;;;;;;;20.69;84.38;101838.34;4981616;28;20038;-45
2022/07/21 10:49:52;;;;;;;5.78;3.58;;;;;;;20.71;84.49;101846.16;4987791;28;20387;-45
2022/07/21 10:52:38;;;;;;;7.32;4.28;;;;;;;20.71;84.54;101847.03;4985664;28;20484;-46
2022/07/21 10:55:09;;;;;;;6.63;4.25;;;;;;;20.64;84.19;101845.28;4979423;28;20081;-44
2022/07/21 10:57:45;;;;;;;5.85;4.60;;;;;;;20.66;84.74;101846.16;4973237;28;20113;-47
2022/07/21 11:00:34;;;;;;;7.63;4.95;;;;;;;20.72;83.49;101848.78;5002172;28;20044;-47
2022/07/21 11:03:01;;;;;;;6.78;4.55;;;;;;;20.64;84.22;101847.03;4986298;28;20039;-47
2022/07/21 11:05:29;;;;;;;10.68;5.03;;;;;;;20.59;84.71;101847.00;4985432;28;20103;-47
2022/07/21 11:08:13;;;;;;;7.47;4.82;;;;;;;20.68;84.13;101848.75;4990746;28;20136;-46
2022/07/21 11:10:41;;;;;;;7.28;4.90;;;;;;;20.60;84.33;101846.13;4997713;28;20026;-48
2022/07/21 11:13:07;;;;;;;7.18;4.97;;;;;;;20.58;83.43;101855.72;4999880;28;20498;-46
2022/07/21 11:15:48;;;;;;;18.77;12.32;;;;;;;20.62;84.70;101854.84;4991230;28;20128;-47
2022/07/21 11:18:22;;;;;;;12.02;7.10;;;;;;;20.59;84.66;101852.25;4989055;28;20046;-48
2022/07/21 11:21:08;;;;;;;7.43;5.70;;;;;;;20.62;84.51;101857.47;4967777;28;20097;-46